createdAt,value
2023-04-27T00:00:42.413Z,10.15
2023-04-27T00:03:45.985Z,11.67
2023-04-27T00:06:47.804Z,12.40
2023-04-27T00:09:54.157Z,11.00
2023-04-27T00:12:55.848Z,10.18
2023-04-27T00:15:57.638Z,13.43
2023-04-27T00:19:00.799Z,13.68
2023-04-27T00:22:03.081Z,11.82
2023-04-27T00:25:05.992Z,13.00
2023-04-27T00:28:07.541Z,13.30
2023-04-27T00:31:09.792Z,11.75
2023-04-27T00:34:13.199Z,11.80
2023-04-27T00:37:15.249Z,13.13
2023-04-27T00:40:17.367Z,11.68
2023-04-27T00:43:20.136Z,14.20
2023-04-27T00:46:22.613Z,11.75
2023-04-27T00:49:26.259Z,13.02
2023-04-27T00:52:28.783Z,11.30
2023-04-27T00:55:32.243Z,11.23
2023-04-27T00:58:34.359Z,13.45
2023-04-27T01:01:36.549Z,11.18
2023-04-27T01:04:39.312Z,12.03
2023-04-27T01:07:42.677Z,11.18
2023-04-27T01:10:44.926Z,11.88
2023-04-27T01:13:48.496Z,14.18
2023-04-27T01:16:52.135Z,11.20
2023-04-27T01:19:56.788Z,12.50
2023-04-27T01:23:00.016Z,11.50
2023-04-27T01:26:02.566Z,11.07
2023-04-27T01:29:04.687Z,12.27
2023-04-27T01:32:06.863Z,14.90
2023-04-27T01:35:10.153Z,11.17
2023-04-27T01:38:13.002Z,13.82
2023-04-27T01:41:16.520Z,11.93
2023-04-27T01:44:26.392Z,11.98
2023-04-27T01:47:30.807Z,11.27
2023-04-27T01:50:32.840Z,14.07
2023-04-27T01:53:38.236Z,13.52
2023-04-27T01:56:40.780Z,13.37
2023-04-27T01:59:42.834Z,11.98
2023-04-27T02:02:45.490Z,11.98
2023-04-27T02:05:48.871Z,13.30
2023-04-27T02:08:54.340Z,13.23
2023-04-27T02:12:00.873Z,12.95
2023-04-27T02:15:03.566Z,16.13
2023-04-27T02:18:07.233Z,13.95
2023-04-27T02:21:10.649Z,13.88
2023-04-27T02:24:13.821Z,13.55
2023-04-27T02:27:16.004Z,14.80
2023-04-27T02:30:20.026Z,13.90
2023-04-27T02:33:23.871Z,13.30
2023-04-27T02:36:25.928Z,13.10
2023-04-27T02:39:31.132Z,12.60
2023-04-27T02:42:34.163Z,12.55
2023-04-27T02:45:38.446Z,13.68
2023-04-27T02:48:44.026Z,12.50
2023-04-27T02:51:46.509Z,14.70
2023-04-27T02:54:50.692Z,14.27
2023-04-27T02:57:53.300Z,13.93
2023-04-27T03:00:56.144Z,13.13
2023-04-27T03:03:58.651Z,12.27
2023-04-27T03:07:01.860Z,12.20
2023-04-27T03:10:05.277Z,13.40
2023-04-27T03:13:07.720Z,14.57
2023-04-27T03:16:11.402Z,13.68
2023-04-27T03:19:14.771Z,14.00
2023-04-27T03:22:20.301Z,13.68
2023-04-27T03:25:22.380Z,15.07
2023-04-27T03:28:24.640Z,13.13
2023-04-27T03:31:26.322Z,12.68
2023-04-27T03:34:28.430Z,13.10
2023-04-27T03:37:30.054Z,13.57
2023-04-27T03:40:32.529Z,13.85
2023-04-27T03:43:35.398Z,12.60
2023-04-27T03:46:38.611Z,13.48
2023-04-27T03:49:41.475Z,17.63
2023-04-27T03:52:43.640Z,13.38
2023-04-27T03:55:45.725Z,14.77
2023-04-27T03:58:47.886Z,15.80
2023-04-27T04:01:52.487Z,14.98
2023-04-27T04:04:55.591Z,16.35
2023-04-27T04:07:58.006Z,15.83
2023-04-27T04:11:01.623Z,17.65
2023-04-27T04:14:03.988Z,16.52
2023-04-27T04:17:09.931Z,16.30
2023-04-27T04:20:11.984Z,13.48
2023-04-27T04:23:13.972Z,14.95
2023-04-27T04:26:17.122Z,17.85
2023-04-27T04:29:19.301Z,16.07
2023-04-27T04:32:23.180Z,18.02
2023-04-27T04:35:26.126Z,13.57
2023-04-27T04:38:27.782Z,13.03
2023-04-27T04:41:29.357Z,14.15
2023-04-27T04:44:33.848Z,16.02
2023-04-27T04:47:35.717Z,14.93
2023-04-27T04:50:39.919Z,10.13
2023-04-27T04:53:42.313Z,12.75
2023-04-27T04:56:43.962Z,13.55
2023-04-27T04:59:45.751Z,13.23
2023-04-27T05:02:48.002Z,15.85
2023-04-27T05:05:51.012Z,13.88
2023-04-27T05:08:52.674Z,14.97
2023-04-27T05:11:57.522Z,13.85
2023-04-27T05:15:00.463Z,13.55
2023-04-27T05:18:02.579Z,14.68
2023-04-27T05:21:06.594Z,13.15
2023-04-27T05:24:08.951Z,15.80
2023-04-27T05:27:14.785Z,15.40
2023-04-27T05:30:19.775Z,13.07
2023-04-27T05:33:22.347Z,13.05
2023-04-27T05:36:24.103Z,16.08
2023-04-27T05:39:26.285Z,16.90
2023-04-27T05:42:28.059Z,16.98
2023-04-27T05:45:34.061Z,17.38
2023-04-27T05:48:35.815Z,19.13
2023-04-27T05:51:41.705Z,17.58
2023-04-27T05:54:49.786Z,15.93
2023-04-27T05:58:04.586Z,18.13
2023-04-27T06:01:13.099Z,17.40
2023-04-27T06:04:15.334Z,14.93
2023-04-27T06:07:19.970Z,15.20
2023-04-27T06:10:22.080Z,16.90
2023-04-27T06:13:25.299Z,14.07
2023-04-27T06:16:27.062Z,15.20
2023-04-27T06:19:29.626Z,16.20
2023-04-27T06:22:31.812Z,14.68
2023-04-27T06:25:38.572Z,16.70
2023-04-27T06:28:42.810Z,14.35
2023-04-27T06:31:46.068Z,14.80
2023-04-27T06:34:49.595Z,16.23
2023-04-27T06:37:51.720Z,16.45
2023-04-27T06:40:54.225Z,14.93
2023-04-27T06:43:58.555Z,14.40
2023-04-27T06:47:01.637Z,13.75
2023-04-27T06:50:05.730Z,14.82
2023-04-27T06:53:08.251Z,12.88
2023-04-27T06:56:12.323Z,15.95
2023-04-27T06:59:14.296Z,14.25
2023-04-27T07:02:16.621Z,16.03
2023-04-27T07:05:19.481Z,19.70
2023-04-27T07:08:21.856Z,15.38
2023-04-27T07:11:24.311Z,12.40
2023-04-27T07:14:27.921Z,13.45
2023-04-27T07:17:31.366Z,13.38
2023-04-27T07:20:35.030Z,13.98
2023-04-27T07:23:39.411Z,12.00
2023-04-27T07:26:42.575Z,13.32
2023-04-27T07:29:45.128Z,14.88
2023-04-27T07:32:48.326Z,11.50
2023-04-27T07:35:51.154Z,12.38
2023-04-27T07:38:53.149Z,13.85
2023-04-27T07:41:55.179Z,12.93
2023-04-27T07:44:57.399Z,14.60
2023-04-27T07:48:00.554Z,13.25
2023-04-27T07:51:02.672Z,14.40
2023-04-27T07:54:06.493Z,13.85
2023-04-27T07:57:10.422Z,16.83
2023-04-27T08:00:13.284Z,12.75
2023-04-27T08:03:15.155Z,15.93
2023-04-27T08:06:19.014Z,12.13
2023-04-27T08:09:21.237Z,13.27
2023-04-27T08:12:23.402Z,13.27
2023-04-27T08:15:25.063Z,12.65
2023-04-27T08:18:27.309Z,13.45
2023-04-27T08:21:30.491Z,12.18
2023-04-27T08:24:32.499Z,11.20
2023-04-27T08:27:37.425Z,14.65
2023-04-27T08:30:39.201Z,12.65
2023-04-27T08:33:54.422Z,15.23
2023-04-27T08:37:00.163Z,12.75
2023-04-27T08:40:08.418Z,12.15
2023-04-27T08:43:10.709Z,12.97
2023-04-27T08:46:12.816Z,10.70
2023-04-27T08:49:16.805Z,11.07
2023-04-27T08:52:20.303Z,10.93
2023-04-27T08:55:23.838Z,12.17
2023-04-27T08:58:39.309Z,12.82
2023-04-27T09:01:46.389Z,14.85
2023-04-27T09:04:49.169Z,12.67
2023-04-27T09:07:58.002Z,11.48
2023-04-27T09:11:00.260Z,11.77
2023-04-27T09:14:18.850Z,13.07
2023-04-27T09:17:28.352Z,12.80
2023-04-27T09:20:36.338Z,12.05
2023-04-27T09:23:39.597Z,11.40
2023-04-27T09:26:43.046Z,11.20
2023-04-27T09:29:45.995Z,12.40
2023-04-27T09:32:56.155Z,9.75
2023-04-27T09:36:00.844Z,12.30
2023-04-27T09:39:06.511Z,11.43
2023-04-27T09:42:09.237Z,11.40
2023-04-27T09:45:12.730Z,12.55
2023-04-27T09:48:14.283Z,11.20
2023-04-27T09:51:16.205Z,10.80
2023-04-27T09:54:19.112Z,9.83
2023-04-27T09:57:33.647Z,13.02
2023-04-27T10:00:54.648Z,10.95
2023-04-27T10:04:34.431Z,11.93
2023-04-27T10:07:39.311Z,10.37
2023-04-27T10:10:50.854Z,12.50
2023-04-27T10:13:55.081Z,9.55
2023-04-27T10:16:58.815Z,10.13
2023-04-27T10:20:11.078Z,12.13
2023-04-27T10:23:28.936Z,9.95
2023-04-27T10:26:31.839Z,11.75
2023-04-27T10:29:42.222Z,10.73
2023-04-27T10:32:59.130Z,11.68
2023-04-27T10:36:01.872Z,9.85
2023-04-27T10:39:14.006Z,9.68
2023-04-27T10:42:28.626Z,9.25
2023-04-27T10:45:34.264Z,8.77
2023-04-27T10:48:36.275Z,9.25
2023-04-27T10:51:38.597Z,12.75
2023-04-27T10:54:46.592Z,9.63
2023-04-27T10:57:52.062Z,9.43
2023-04-27T11:00:54.284Z,8.23
2023-04-27T11:04:01.076Z,8.65
2023-04-27T11:07:04.751Z,9.75
2023-04-27T11:10:10.483Z,8.68
2023-04-27T11:13:16.559Z,8.70
2023-04-27T11:16:21.701Z,9.00
2023-04-27T11:19:23.617Z,7.95
2023-04-27T11:22:26.934Z,11.05
2023-04-27T11:25:29.757Z,7.57
2023-04-27T11:28:34.134Z,7.57
2023-04-27T11:31:48.858Z,9.68
2023-04-27T11:34:53.745Z,9.20
2023-04-27T11:38:00.495Z,9.57
2023-04-27T11:41:10.293Z,10.63
2023-04-27T11:44:12.857Z,9.60
2023-04-27T11:50:35.553Z,10.83
2023-04-27T11:53:44.460Z,7.15
2023-04-27T11:56:46.461Z,9.13
2023-04-27T11:59:48.750Z,8.13
2023-04-27T12:02:51.106Z,8.97
2023-04-27T12:05:54.412Z,9.65
2023-04-27T12:08:59.448Z,7.57
2023-04-27T12:12:02.644Z,7.93
2023-04-27T12:15:05.263Z,6.77
2023-04-27T12:18:07.299Z,8.77
2023-04-27T12:21:10.487Z,8.00
2023-04-27T12:24:15.842Z,7.45
2023-04-27T12:27:17.720Z,7.15
2023-04-27T12:30:19.910Z,10.33
2023-04-27T12:33:22.535Z,8.55
2023-04-27T12:36:24.536Z,8.82
2023-04-27T12:39:28.558Z,8.05
2023-04-27T12:42:30.236Z,8.40
2023-04-27T12:45:32.583Z,8.27
2023-04-27T12:48:36.994Z,8.27
2023-04-27T12:51:38.730Z,7.95
2023-04-27T12:54:44.097Z,7.47
2023-04-27T12:57:49.346Z,7.82
2023-04-27T13:00:52.368Z,8.73
2023-04-27T13:03:56.102Z,5.97
2023-04-27T13:07:01.139Z,6.88
2023-04-27T13:10:05.472Z,7.07
2023-04-27T13:13:07.917Z,7.05
2023-04-27T13:16:10.541Z,6.87
2023-04-27T13:19:13.172Z,10.43
2023-04-27T13:22:14.831Z,6.97
2023-04-27T13:25:17.616Z,6.78
2023-04-27T13:28:21.409Z,8.80
2023-04-27T13:31:23.688Z,7.87
2023-04-27T13:34:28.817Z,9.82
2023-04-27T13:37:31.738Z,8.98
2023-04-27T13:40:33.768Z,9.43
2023-04-27T13:43:35.665Z,7.38
2023-04-27T13:46:38.193Z,9.87
2023-04-27T13:49:41.198Z,8.38
2023-04-27T13:52:44.415Z,7.43
2023-04-27T13:55:49.137Z,11.15
2023-04-27T13:58:51.747Z,7.38
2023-04-27T14:01:55.145Z,9.00
2023-04-27T14:04:57.595Z,10.15
2023-04-27T14:08:02.035Z,8.15
2023-04-27T14:11:06.808Z,9.77
2023-04-27T14:14:08.404Z,7.15
2023-04-27T14:17:11.036Z,8.83
2023-04-27T14:20:13.213Z,7.88
2023-04-27T14:23:15.943Z,9.52
2023-04-27T14:26:18.527Z,7.53
2023-04-27T14:29:21.274Z,7.00
2023-04-27T14:32:24.166Z,7.10
2023-04-27T14:35:28.689Z,6.85
2023-04-27T14:38:30.702Z,7.57
2023-04-27T14:41:32.558Z,9.88
2023-04-27T14:44:36.276Z,7.57
2023-04-27T14:47:38.544Z,8.00
2023-04-27T14:50:40.717Z,8.00
2023-04-27T14:53:42.943Z,7.72
2023-04-27T14:56:46.695Z,8.98
2023-04-27T14:59:55.167Z,9.15
2023-04-27T15:02:57.308Z,7.47
2023-04-27T15:06:00.431Z,10.10
2023-04-27T15:09:03.928Z,9.25
2023-04-27T15:12:08.047Z,8.57
2023-04-27T15:15:13.754Z,10.70
2023-04-27T15:18:15.825Z,9.30
2023-04-27T15:21:17.473Z,8.43
2023-04-27T15:24:19.030Z,7.68
2023-04-27T15:27:20.690Z,7.88
2023-04-27T15:30:22.299Z,9.23
2023-04-27T15:33:24.469Z,8.57
2023-04-27T15:36:28.350Z,9.73
2023-04-27T15:39:31.098Z,9.20
2023-04-27T15:42:32.871Z,10.35
2023-04-27T15:45:39.639Z,6.93
2023-04-27T15:48:46.021Z,7.53
2023-04-27T15:51:50.148Z,8.05
2023-04-27T15:54:52.326Z,8.60
2023-04-27T15:57:53.901Z,7.22
2023-04-27T16:00:56.311Z,8.10
2023-04-27T16:03:58.572Z,12.77
2023-04-27T16:07:00.716Z,8.40
2023-04-27T16:10:03.454Z,9.75
2023-04-27T16:13:05.685Z,9.55
2023-04-27T16:16:08.591Z,9.98
2023-04-27T16:19:10.747Z,8.27
2023-04-27T16:22:13.540Z,8.30
2023-04-27T16:25:17.409Z,8.45
2023-04-27T16:28:22.233Z,7.80
2023-04-27T16:31:24.349Z,8.63
2023-04-27T16:34:26.390Z,8.47
2023-04-27T16:37:28.971Z,7.80
2023-04-27T16:40:31.675Z,7.95
2023-04-27T16:43:33.910Z,7.15
2023-04-27T16:46:35.987Z,7.47
2023-04-27T16:49:37.827Z,12.47
2023-04-27T16:52:40.015Z,7.07
2023-04-27T16:55:42.294Z,7.57
2023-04-27T16:58:44.368Z,7.32
2023-04-27T17:01:46.121Z,7.07
2023-04-27T17:04:48.581Z,9.07
2023-04-27T17:07:50.809Z,7.18
2023-04-27T17:10:53.094Z,9.27
2023-04-27T17:13:54.847Z,7.13
2023-04-27T17:16:56.487Z,7.82
2023-04-27T17:19:58.324Z,7.73
2023-04-27T17:23:00.397Z,7.40
2023-04-27T17:26:03.130Z,6.32
2023-04-27T17:29:05.662Z,7.97
2023-04-27T17:32:09.942Z,6.97
2023-04-27T17:35:11.721Z,7.73
2023-04-27T17:38:14.737Z,8.73
2023-04-27T17:41:16.312Z,7.30
2023-04-27T17:44:18.576Z,7.88
2023-04-27T17:47:22.335Z,9.52
2023-04-27T17:50:28.814Z,8.27
2023-04-27T17:53:30.563Z,8.43
2023-04-27T17:56:33.547Z,7.28
2023-04-27T17:59:36.857Z,6.10
2023-04-27T18:02:39.485Z,6.80
2023-04-27T18:05:41.758Z,8.73
2023-04-27T18:08:44.818Z,9.18
2023-04-27T18:11:46.438Z,8.55
2023-04-27T18:14:56.537Z,7.28
2023-04-27T18:17:58.260Z,7.95
2023-04-27T18:21:00.006Z,8.07
2023-04-27T18:24:02.475Z,7.20
2023-04-27T18:27:05.510Z,7.15
2023-04-27T18:30:10.668Z,10.35
2023-04-27T18:33:17.800Z,8.88
2023-04-27T18:36:19.897Z,9.67
2023-04-27T18:39:22.112Z,10.55
2023-04-27T18:42:27.960Z,9.90
2023-04-27T18:45:31.753Z,8.85
2023-04-27T18:48:34.297Z,13.43
2023-04-27T18:51:36.360Z,11.23
2023-04-27T18:54:40.144Z,12.50
2023-04-27T18:57:41.832Z,12.05
2023-04-27T19:00:45.749Z,12.17
2023-04-27T19:03:49.506Z,12.15
2023-04-27T19:06:51.742Z,13.43
2023-04-27T19:09:55.232Z,17.77
2023-04-27T19:12:57.105Z,16.80
2023-04-27T19:15:59.318Z,14.10
2023-04-27T19:19:01.094Z,14.00
2023-04-27T19:22:05.426Z,14.30
2023-04-27T19:25:10.767Z,13.77
2023-04-27T19:28:18.796Z,14.15
2023-04-27T19:31:22.703Z,12.43
2023-04-27T19:34:24.765Z,11.35
2023-04-27T19:37:28.077Z,11.70
2023-04-27T19:40:29.742Z,12.13
2023-04-27T19:43:31.844Z,15.45
2023-04-27T19:46:33.583Z,14.60
2023-04-27T19:49:35.822Z,12.47
2023-04-27T19:52:37.542Z,13.82
2023-04-27T19:55:40.473Z,16.10
2023-04-27T19:58:43.151Z,24.67
2023-04-27T20:01:45.415Z,23.83
2023-04-27T20:04:47.900Z,25.85
2023-04-27T20:07:50.113Z,31.13
2023-04-27T20:10:52.512Z,37.13
2023-04-27T20:13:54.692Z,27.92
2023-04-27T20:16:56.531Z,21.75
2023-04-27T20:19:58.142Z,18.05
2023-04-27T20:23:00.658Z,16.83
2023-04-27T20:26:03.114Z,14.85
2023-04-27T20:29:05.209Z,12.27
2023-04-27T20:32:07.553Z,12.40
2023-04-27T20:35:11.319Z,11.27
2023-04-27T20:38:13.563Z,12.27
2023-04-27T20:41:15.186Z,13.60
2023-04-27T20:44:18.286Z,13.20
2023-04-27T20:47:20.864Z,10.93
2023-04-27T20:50:23.604Z,13.40
2023-04-27T20:53:28.593Z,11.93
2023-04-27T20:56:31.084Z,13.85
2023-04-27T20:59:33.338Z,11.45
2023-04-27T21:02:44.820Z,13.82
2023-04-27T21:05:57.400Z,14.70
2023-04-27T21:09:00.482Z,14.13
2023-04-27T21:12:04.652Z,12.98
2023-04-27T21:15:07.185Z,14.53
2023-04-27T21:18:16.048Z,12.20
2023-04-27T21:21:26.522Z,14.57
2023-04-27T21:24:29.016Z,14.32
2023-04-27T21:27:33.746Z,12.40
2023-04-27T21:30:35.524Z,12.35
2023-04-27T21:33:37.726Z,16.23
2023-04-27T21:36:39.887Z,12.60
2023-04-27T21:39:42.042Z,16.65
2023-04-27T21:42:44.908Z,17.83
2023-04-27T21:45:48.413Z,13.93
2023-04-27T21:48:51.097Z,15.05
2023-04-27T21:51:55.954Z,12.70
2023-04-27T21:54:59.263Z,14.30
2023-04-27T21:58:01.624Z,14.98
2023-04-27T22:01:05.823Z,15.10
2023-04-27T22:04:07.547Z,15.25
2023-04-27T22:07:12.525Z,13.47
2023-04-27T22:10:14.684Z,13.50
2023-04-27T22:13:20.512Z,14.25
2023-04-27T22:16:25.329Z,13.53
2023-04-27T22:19:30.567Z,13.52
2023-04-27T22:22:32.711Z,13.80
2023-04-27T22:25:35.379Z,14.45
2023-04-27T22:28:37.648Z,15.68
2023-04-27T22:31:39.818Z,13.68
2023-04-27T22:34:42.022Z,13.57
2023-04-27T22:37:54.351Z,13.40
2023-04-27T22:40:59.926Z,13.85
2023-04-27T22:44:03.971Z,13.93
2023-04-27T22:47:06.714Z,14.23
2023-04-27T22:50:08.721Z,12.18
2023-04-27T22:53:10.330Z,16.08
2023-04-27T22:56:12.799Z,15.02
2023-04-27T22:59:14.815Z,14.43
2023-04-27T23:02:16.954Z,13.80
2023-04-27T23:05:20.077Z,12.60
2023-04-27T23:08:25.062Z,13.40
2023-04-27T23:11:28.337Z,13.75
2023-04-27T23:14:33.395Z,11.30
2023-04-27T23:17:36.122Z,13.23
2023-04-27T23:20:40.404Z,12.15
2023-04-27T23:23:42.429Z,13.85
2023-04-27T23:26:44.458Z,15.70
2023-04-27T23:29:47.022Z,15.55
2023-04-27T23:32:49.275Z,13.77
2023-04-27T23:35:53.074Z,16.08
2023-04-27T23:38:58.331Z,17.40
2023-04-27T23:42:00.773Z,14.88
2023-04-27T23:45:04.161Z,11.65
2023-04-27T23:48:06.599Z,12.07
2023-04-27T23:51:10.672Z,14.07
2023-04-27T23:54:14.175Z,13.15
2023-04-27T23:57:17.512Z,10.65
